Time;durP1;ratioP1;P1;durP2;ratioP2;P2;SDS_P1;SDS_P2;PMS_P1;PMS_P2;Temp;Humidity;BMP_temperature;BMP_pressure;BME280_temperature;BME280_humidity;BME280_pressure;Samples;Min_cycle;Max_cycle;Signal;HPM_P1;HPM_P2
2023/06/27 00:01:39;;;;;;;2.50;0.70;;;24.20;51.90;;;;;;4972687;28;20060;-58
2023/06/27 00:04:08;;;;;;;1.42;0.40;;;24.20;51.90;;;;;;4971706;28;20038;-58
2023/06/27 00:06:37;;;;;;;1.73;0.50;;;24.20;51.90;;;;;;4972696;28;20085;-58
2023/06/27 00:09:05;;;;;;;1.88;0.50;;;24.20;52.00;;;;;;4971966;28;20046;-58
2023/06/27 00:11:31;;;;;;;0.75;0.40;;;24.20;52.10;;;;;;4974370;28;20387;-58
2023/06/27 00:13:58;;;;;;;1.65;0.50;;;24.20;52.10;;;;;;4976162;28;20049;-58
2023/06/27 00:16:24;;;;;;;1.02;0.60;;;24.20;52.80;;;;;;4975810;28;20113;-58
2023/06/27 00:18:50;;;;;;;1.42;0.45;;;24.20;52.20;;;;;;4976198;28;20074;-58
2023/06/27 00:21:15;;;;;;;1.83;0.60;;;24.10;52.20;;;;;;4976657;28;20411;-57
2023/06/27 00:23:42;;;;;;;1.13;0.47;;;24.20;52.20;;;;;;4975969;28;20391;-58
2023/06/27 00:26:08;;;;;;;1.45;0.50;;;24.10;52.20;;;;;;4976158;28;20054;-58
2023/06/27 00:28:34;;;;;;;2.38;0.50;;;24.10;53.00;;;;;;4976662;28;20042;-58
2023/06/27 00:30:59;;;;;;;2.92;0.70;;;24.10;52.30;;;;;;4975306;28;20053;-58
2023/06/27 00:33:25;;;;;;;1.88;0.70;;;24.20;52.40;;;;;;4975997;28;20062;-58
2023/06/27 00:35:51;;;;;;;2.72;0.60;;;24.10;52.40;;;;;;4976152;28;20390;-58
2023/06/27 00:38:17;;;;;;;2.05;0.52;;;24.10;52.50;;;;;;4975148;28;20138;-58
2023/06/27 00:40:42;;;;;;;2.22;0.60;;;24.10;52.50;;;;;;4974973;28;20039;-58
2023/06/27 00:43:08;;;;;;;0.90;0.40;;;24.10;52.60;;;;;;4975751;28;20129;-58
2023/06/27 00:45:33;;;;;;;1.52;0.50;;;24.10;52.50;;;;;;4975297;28;20149;-57
2023/06/27 00:48:02;;;;;;;2.45;0.70;;;24.10;52.70;;;;;;4975601;28;20039;-57
2023/06/27 00:50:28;;;;;;;1.70;0.70;;;24.10;52.70;;;;;;4975988;28;20049;-57
2023/06/27 00:52:54;;;;;;;1.20;0.57;;;24.10;52.80;;;;;;4973778;28;20478;-57
2023/06/27 00:55:20;;;;;;;1.50;0.50;;;24.10;52.80;;;;;;4974763;28;20045;-59
2023/06/27 00:57:46;;;;;;;1.27;0.50;;;24.10;52.90;;;;;;4974523;28;20059;-57
2023/06/27 01:00:13;;;;;;;1.23;0.40;;;24.10;52.90;;;;;;4973849;28;20070;-57
2023/06/27 01:02:39;;;;;;;1.27;0.60;;;24.10;52.90;;;;;;4975817;28;20173;-57
2023/06/27 01:05:07;;;;;;;2.38;0.70;;;24.10;53.00;;;;;;4975359;28;20504;-57
2023/06/27 01:07:42;;;;;;;1.98;0.68;;;24.10;53.00;;;;;;4981492;28;20085;-57
2023/06/27 01:10:46;;;;;;;1.67;0.52;;;24.10;53.00;;;;;;4977507;28;20050;-57
2023/06/27 01:13:29;;;;;;;1.35;0.60;;;24.10;53.10;;;;;;4991504;28;20058;-57
2023/06/27 01:15:56;;;;;;;2.42;0.60;;;24.00;53.10;;;;;;4994405;28;20038;-57
2023/06/27 01:18:22;;;;;;;0.90;0.50;;;24.00;53.10;;;;;;4993743;28;20042;-57
2023/06/27 01:20:47;;;;;;;1.38;0.55;;;24.00;53.20;;;;;;4992216;28;20661;-58
2023/06/27 01:23:19;;;;;;;0.93;0.40;;;24.00;53.20;;;;;;4976962;28;20054;-58
2023/06/27 01:25:45;;;;;;;1.60;0.45;;;24.00;54.00;;;;;;4994641;28;20050;-57
2023/06/27 01:28:14;;;;;;;2.90;0.52;;;24.00;53.30;;;;;;4992472;28;20042;-57
2023/06/27 01:30:40;;;;;;;1.42;0.50;;;24.00;53.30;;;;;;4994539;28;20125;-58
2023/06/27 01:33:21;;;;;;;1.20;0.60;;;24.00;53.40;;;;;;4994578;28;20634;-58
2023/06/27 01:36:20;;;;;;;1.10;0.65;;;24.00;53.40;;;;;;4992737;28;20077;-58
2023/06/27 01:38:52;;;;;;;2.00;0.60;;;24.00;53.40;;;;;;4959404;28;20066;-58
2023/06/27 01:41:18;;;;;;;1.73;0.60;;;24.00;53.50;;;;;;4993560;28;20073;-57
2023/06/27 01:43:44;;;;;;;1.83;0.57;;;24.00;53.50;;;;;;4994602;28;20505;-58
2023/06/27 01:46:10;;;;;;;1.48;0.50;;;24.00;53.50;;;;;;4976460;28;20050;-58
2023/06/27 01:48:36;;;;;;;0.80;0.50;;;24.00;53.60;;;;;;4992525;28;20038;-58
2023/06/27 01:51:08;;;;;;;1.42;0.50;;;24.00;53.70;;;;;;4993449;28;20696;-58
2023/06/27 01:53:35;;;;;;;0.88;0.47;;;24.00;53.70;;;;;;4993262;28;20096;-57
2023/06/27 01:56:02;;;;;;;1.93;0.70;;;24.00;53.70;;;;;;4992863;28;20038;-59
2023/06/27 01:58:27;;;;;;;1.48;0.50;;;24.00;53.70;;;;;;4994141;28;20126;-58
2023/06/27 02:00:53;;;;;;;1.55;0.60;;;24.00;53.80;;;;;;4986443;28;20125;-58
2023/06/27 02:03:18;;;;;;;1.27;0.60;;;24.00;53.80;;;;;;4972618;28;20375;-58
2023/06/27 02:05:44;;;;;;;1.90;0.50;;;24.00;53.80;;;;;;4974202;28;20051;-58
2023/06/27 02:08:09;;;;;;;2.20;0.70;;;24.00;53.80;;;;;;4973418;28;20118;-58
2023/06/27 02:10:35;;;;;;;1.15;0.60;;;23.90;53.80;;;;;;4973573;28;20483;-58
2023/06/27 02:13:02;;;;;;;1.67;0.55;;;24.00;53.90;;;;;;4974170;28;20047;-58
2023/06/27 02:15:27;;;;;;;2.03;0.50;;;23.90;53.90;;;;;;4973794;28;20047;-58
2023/06/27 02:17:53;;;;;;;1.55;0.60;;;24.00;54.70;;;;;;4976863;28;20121;-58
2023/06/27 02:20:19;;;;;;;1.08;0.50;;;23.90;53.90;;;;;;4993895;28;20096;-58
2023/06/27 02:22:44;;;;;;;2.47;0.70;;;23.90;54.00;;;;;;4993217;28;20053;-58
2023/06/27 02:25:10;;;;;;;1.55;0.50;;;23.90;54.00;;;;;;4993597;28;20054;-58
2023/06/27 02:27:35;;;;;;;1.58;0.52;;;23.90;54.00;;;;;;4993496;28;20122;-59
2023/06/27 02:30:01;;;;;;;2.00;0.70;;;23.90;54.00;;;;;;4992242;28;20367;-58
2023/06/27 02:32:27;;;;;;;1.67;0.60;;;23.90;54.10;;;;;;4993426;28;20049;-58
2023/06/27 02:34:52;;;;;;;1.30;0.40;;;23.90;54.10;;;;;;4992421;28;20050;-58
2023/06/27 02:37:18;;;;;;;1.40;0.50;;;23.90;54.10;;;;;;4992199;28;20438;-58
2023/06/27 02:39:44;;;;;;;1.35;0.60;;;23.90;54.10;;;;;;4993667;28;20054;-58
2023/06/27 02:42:09;;;;;;;1.08;0.50;;;23.90;54.20;;;;;;4993068;28;20398;-58
2023/06/27 02:44:35;;;;;;;0.90;0.50;;;23.90;54.20;;;;;;4992515;28;20056;-58
2023/06/27 02:47:00;;;;;;;1.02;0.40;;;23.90;54.20;;;;;;4992547;28;20057;-58
2023/06/27 02:49:26;;;;;;;1.98;0.50;;;23.90;54.20;;;;;;4993356;28;20471;-58
2023/06/27 02:51:51;;;;;;;2.03;0.70;;;23.90;54.20;;;;;;4991547;28;20058;-58
2023/06/27 02:54:17;;;;;;;1.88;0.45;;;23.90;54.30;;;;;;4992981;28;20102;-58
2023/06/27 02:56:43;;;;;;;1.25;0.60;;;23.90;54.30;;;;;;4992951;28;20419;-58
2023/06/27 02:59:08;;;;;;;0.95;0.52;;;23.80;54.30;;;;;;4990616;28;20137;-57
2023/06/27 03:01:34;;;;;;;1.45;0.70;;;23.90;54.30;;;;;;4992695;28;20470;-58
2023/06/27 03:03:59;;;;;;;0.63;0.47;;;23.90;54.30;;;;;;4992798;28;20074;-58
2023/06/27 03:06:25;;;;;;;1.52;0.57;;;23.80;54.30;;;;;;4991884;28;20042;-58
2023/06/27 03:08:51;;;;;;;1.13;0.55;;;23.90;54.40;;;;;;4992795;28;20053;-58
2023/06/27 03:11:16;;;;;;;1.25;0.70;;;23.90;54.40;;;;;;4992405;28;20049;-58
2023/06/27 03:13:42;;;;;;;1.33;0.60;;;23.90;54.50;;;;;;4992047;28;20498;-58
2023/06/27 03:16:07;;;;;;;1.63;0.73;;;23.80;54.40;;;;;;4992259;28;20097;-58
2023/06/27 03:18:33;;;;;;;1.67;0.60;;;23.90;54.50;;;;;;4993075;28;20080;-58
2023/06/27 03:20:58;;;;;;;1.10;0.52;;;23.80;54.50;;;;;;4991440;28;20042;-58
2023/06/27 03:23:24;;;;;;;1.92;0.70;;;23.80;54.50;;;;;;4992990;28;20053;-58
2023/06/27 03:25:50;;;;;;;1.15;0.57;;;23.80;54.60;;;;;;4991519;28;20396;-58
2023/06/27 03:28:16;;;;;;;1.48;0.60;;;23.80;54.60;;;;;;4992577;28;20042;-58
2023/06/27 03:30:43;;;;;;;1.63;0.50;;;23.80;54.60;;;;;;4992278;28;20046;-57
2023/06/27 03:33:11;;;;;;;1.87;0.80;;;23.80;54.60;;;;;;4991468;28;20392;-58
2023/06/27 03:35:37;;;;;;;1.42;0.60;;;23.80;54.70;;;;;;4992570;28;20474;-58
2023/06/27 03:38:03;;;;;;;2.28;0.70;;;23.80;54.60;;;;;;4991568;28;20149;-58
2023/06/27 03:40:28;;;;;;;1.60;0.60;;;23.80;54.70;;;;;;4992027;28;20209;-58
2023/06/27 03:42:55;;;;;;;1.42;0.50;;;23.80;54.70;;;;;;4983571;28;20039;-58
2023/06/27 03:45:21;;;;;;;2.42;0.70;;;23.70;54.70;;;;;;4980496;28;20054;-58
2023/06/27 03:47:47;;;;;;;1.42;0.70;;;23.80;54.80;;;;;;4975924;28;20083;-58
2023/06/27 03:50:13;;;;;;;0.93;0.50;;;23.80;54.80;;;;;;4977100;28;20046;-58
2023/06/27 03:52:38;;;;;;;1.27;0.50;;;23.70;54.80;;;;;;4977354;28;20515;-58
2023/06/27 03:55:05;;;;;;;1.85;0.70;;;23.80;54.80;;;;;;4976205;28;20065;-59
2023/06/27 03:57:31;;;;;;;2.22;0.70;;;23.80;54.80;;;;;;4976845;28;20051;-58
2023/06/27 03:59:56;;;;;;;1.63;0.60;;;23.70;54.80;;;;;;4976725;28;20470;-58
2023/06/27 04:02:22;;;;;;;1.25;0.60;;;23.70;54.80;;;;;;4986871;28;20093;-57
2023/06/27 04:04:47;;;;;;;0.85;0.60;;;23.70;54.80;;;;;;4976309;28;20109;-58
2023/06/27 04:07:14;;;;;;;0.98;0.60;;;23.70;54.80;;;;;;4976173;28;20031;-58
2023/06/27 04:09:40;;;;;;;2.35;0.60;;;23.80;54.90;;;;;;4975850;28;20054;-58
2023/06/27 04:12:06;;;;;;;2.08;0.70;;;23.70;54.80;;;;;;4975964;28;20054;-58
2023/06/27 04:14:32;;;;;;;1.60;0.60;;;23.80;55.00;;;;;;4976559;28;20480;-57
2023/06/27 04:16:57;;;;;;;1.35;0.60;;;23.80;55.10;;;;;;4975887;28;20154;-58
2023/06/27 04:19:23;;;;;;;1.20;0.57;;;23.80;55.10;;;;;;4976774;28;20096;-58
2023/06/27 04:21:48;;;;;;;1.40;0.55;;;23.70;55.70;;;;;;4976008;28;20137;-57
2023/06/27 04:24:14;;;;;;;1.77;0.60;;;23.80;55.10;;;;;;4975987;28;20042;-57
2023/06/27 04:26:42;;;;;;;1.92;0.80;;;23.80;55.20;;;;;;4976129;28;20085;-58
2023/06/27 04:29:08;;;;;;;1.60;0.50;;;23.70;55.10;;;;;;4975431;28;20238;-58
2023/06/27 04:31:33;;;;;;;1.10;0.60;;;23.80;55.20;;;;;;4976403;28;20479;-58
2023/06/27 04:33:59;;;;;;;1.00;0.50;;;23.80;55.30;;;;;;4976225;28;20050;-58
2023/06/27 04:36:29;;;;;;;1.98;0.88;;;23.80;55.30;;;;;;4975064;28;20537;-58
2023/06/27 04:38:54;;;;;;;1.77;0.70;;;23.80;55.30;;;;;;4975885;28;20079;-58
2023/06/27 04:41:20;;;;;;;2.22;0.73;;;23.80;55.30;;;;;;4975955;28;20051;-58
2023/06/27 04:43:46;;;;;;;1.50;0.80;;;23.80;55.40;;;;;;4975586;28;20058;-58
2023/06/27 04:46:11;;;;;;;1.20;0.70;;;23.80;55.40;;;;;;4975816;28;20043;-58
2023/06/27 04:48:37;;;;;;;1.88;0.93;;;23.80;55.40;;;;;;4976425;28;20490;-58
2023/06/27 04:51:03;;;;;;;2.25;0.80;;;23.80;56.20;;;;;;4974895;28;20034;-58
2023/06/27 04:53:29;;;;;;;1.42;0.70;;;23.90;55.60;;;;;;4975490;28;20039;-57
2023/06/27 04:55:55;;;;;;;1.60;0.70;;;23.90;55.60;;;;;;4975621;28;20065;-57
2023/06/27 04:58:20;;;;;;;1.13;0.70;;;23.90;56.30;;;;;;4974000;28;20070;-57
2023/06/27 05:00:51;;;;;;;2.58;0.90;;;23.90;55.70;;;;;;4975805;28;20053;-57
2023/06/27 05:03:26;;;;;;;1.58;0.70;;;23.90;55.70;;;;;;4975922;28;20109;-57
2023/06/27 05:05:51;;;;;;;1.92;0.70;;;23.90;55.80;;;;;;4974602;28;20039;-58
2023/06/27 05:08:17;;;;;;;2.10;0.80;;;23.90;55.70;;;;;;4975746;28;20053;-58
2023/06/27 05:10:43;;;;;;;1.52;0.70;;;24.00;55.80;;;;;;4975487;28;20042;-57
2023/06/27 05:13:08;;;;;;;3.42;0.73;;;23.90;55.70;;;;;;4973139;28;20178;-57
2023/06/27 05:15:34;;;;;;;1.65;0.70;;;24.00;55.80;;;;;;4975134;28;20045;-57
2023/06/27 05:18:06;;;;;;;1.52;0.77;;;24.00;55.80;;;;;;4975537;28;20046;-57
2023/06/27 05:20:31;;;;;;;1.00;0.70;;;24.00;55.80;;;;;;4975096;28;20047;-58
2023/06/27 05:22:57;;;;;;;1.58;0.77;;;24.00;55.80;;;;;;4974067;28;20088;-58
2023/06/27 05:25:22;;;;;;;1.23;0.80;;;24.00;55.80;;;;;;4975205;28;20050;-58
2023/06/27 05:27:48;;;;;;;1.20;0.65;;;24.00;55.80;;;;;;4975714;28;20030;-57
2023/06/27 05:30:14;;;;;;;0.90;0.60;;;24.00;55.80;;;;;;4975510;28;20450;-57
2023/06/27 05:32:39;;;;;;;2.17;0.70;;;24.00;55.80;;;;;;4975266;28;20042;-57
2023/06/27 05:35:05;;;;;;;1.55;0.73;;;24.00;55.80;;;;;;4975189;28;20047;-58
2023/06/27 05:37:31;;;;;;;5.75;2.30;;;24.10;55.90;;;;;;4975264;28;20518;-58
2023/06/27 05:39:57;;;;;;;8.27;3.42;;;24.00;55.30;;;;;;4974803;28;20051;-58
2023/06/27 05:42:22;;;;;;;6.75;2.83;;;24.00;55.30;;;;;;4975774;28;20034;-58
2023/06/27 05:44:48;;;;;;;6.28;3.00;;;24.00;54.20;;;;;;4975413;28;20047;-58
2023/06/27 05:47:16;;;;;;;9.25;2.95;;;23.90;54.00;;;;;;4974970;28;20067;-59
2023/06/27 05:49:42;;;;;;;9.07;3.38;;;23.80;53.80;;;;;;4975618;28;20061;-58
2023/06/27 05:52:08;;;;;;;8.93;2.70;;;23.70;53.80;;;;;;4975128;28;20043;-58
2023/06/27 05:54:33;;;;;;;7.25;3.13;;;23.70;53.80;;;;;;4974799;28;20047;-58
2023/06/27 05:56:59;;;;;;;7.30;2.85;;;23.60;53.80;;;;;;4974881;28;20525;-59
2023/06/27 05:59:24;;;;;;;7.35;2.70;;;23.60;53.90;;;;;;4975678;28;20043;-59
2023/06/27 06:01:50;;;;;;;8.80;3.20;;;23.60;53.90;;;;;;4974456;28;20113;-57
2023/06/27 06:04:15;;;;;;;5.80;2.58;;;23.50;53.90;;;;;;4975791;28;20039;-58
2023/06/27 06:06:41;;;;;;;8.00;2.30;;;23.50;53.90;;;;;;4975129;28;20137;-58
2023/06/27 06:09:07;;;;;;;5.88;2.50;;;23.50;53.90;;;;;;4974148;28;20573;-58
2023/06/27 06:11:34;;;;;;;7.97;2.50;;;23.50;53.90;;;;;;4975386;28;20134;-59
2023/06/27 06:14:01;;;;;;;7.75;2.20;;;23.50;54.00;;;;;;4974982;28;20046;-58
2023/06/27 06:16:27;;;;;;;4.88;1.55;;;23.50;53.90;;;;;;4974597;28;20054;-58
2023/06/27 06:18:53;;;;;;;5.55;1.90;;;23.50;54.10;;;;;;4974779;28;20034;-58
2023/06/27 06:21:19;;;;;;;5.97;1.90;;;23.50;54.00;;;;;;4974860;28;20054;-58
2023/06/27 06:23:44;;;;;;;6.88;1.92;;;23.50;54.00;;;;;;4974410;28;20050;-58
2023/06/27 06:26:10;;;;;;;6.45;2.20;;;23.50;54.10;;;;;;4985558;28;20121;-57
2023/06/27 06:28:37;;;;;;;5.82;1.70;;;23.50;54.10;;;;;;4974927;28;20095;-58
2023/06/27 06:31:04;;;;;;;9.10;1.63;;;23.50;54.00;;;;;;4974102;28;20126;-58
2023/06/27 06:33:29;;;;;;;7.45;1.58;;;23.50;53.90;;;;;;4976061;28;20309;-58
2023/06/27 06:35:55;;;;;;;6.47;1.77;;;23.50;53.70;;;;;;4975161;28;20043;-57
2023/06/27 06:38:21;;;;;;;5.65;1.67;;;23.50;53.80;;;;;;4973741;28;20062;-57
2023/06/27 06:40:46;;;;;;;5.10;1.75;;;23.50;53.70;;;;;;4973960;28;20055;-58
2023/06/27 06:43:12;;;;;;;6.68;1.55;;;23.50;53.60;;;;;;4973194;28;20078;-59
2023/06/27 06:45:38;;;;;;;4.32;1.10;;;23.40;53.50;;;;;;4974136;28;20142;-58
2023/06/27 06:48:04;;;;;;;4.35;1.30;;;23.40;53.40;;;;;;4973517;28;20502;-58
2023/06/27 06:50:31;;;;;;;7.53;1.40;;;23.40;53.70;;;;;;4973339;28;20059;-58
2023/06/27 06:52:57;;;;;;;5.25;1.35;;;23.50;53.80;;;;;;4973930;28;20490;-59
2023/06/27 06:55:23;;;;;;;5.43;1.30;;;23.50;53.90;;;;;;4973464;28;20046;-59
2023/06/27 06:57:49;;;;;;;5.93;1.50;;;23.50;54.00;;;;;;4973163;28;20108;-59
2023/06/27 07:00:16;;;;;;;5.82;1.70;;;23.50;54.10;;;;;;4974327;28;20449;-58
2023/06/27 07:02:42;;;;;;;4.57;1.38;;;23.50;54.10;;;;;;4974115;28;20122;-58
2023/06/27 07:05:09;;;;;;;7.88;1.30;;;23.50;54.00;;;;;;4973318;28;20069;-58
2023/06/27 07:07:35;;;;;;;4.70;1.17;;;23.50;54.00;;;;;;4974246;28;20043;-58
2023/06/27 07:10:01;;;;;;;5.05;1.20;;;23.50;53.90;;;;;;4973730;28;20062;-59
2023/06/27 07:12:26;;;;;;;3.35;1.00;;;23.60;53.80;;;;;;4973527;28;20039;-59
2023/06/27 07:14:52;;;;;;;3.97;1.40;;;23.50;53.70;;;;;;4973778;28;20050;-58
2023/06/27 07:17:18;;;;;;;5.38;1.20;;;23.50;53.50;;;;;;4973774;28;20042;-58
2023/06/27 07:19:43;;;;;;;4.53;0.90;;;23.50;53.20;;;;;;4973354;28;20042;-58
2023/06/27 07:22:09;;;;;;;4.25;0.95;;;23.50;53.10;;;;;;4973019;28;20042;-59
2023/06/27 07:24:35;;;;;;;4.07;1.15;;;23.60;52.90;;;;;;4973813;28;20046;-59
2023/06/27 07:27:00;;;;;;;2.67;0.90;;;23.50;53.40;;;;;;4973058;28;20050;-58
2023/06/27 07:29:26;;;;;;;4.43;0.93;;;23.50;52.50;;;;;;4984187;28;20054;-59
2023/06/27 07:31:51;;;;;;;3.53;0.75;;;23.50;52.40;;;;;;4973667;28;20042;-59
2023/06/27 07:34:17;;;;;;;3.30;0.77;;;23.60;52.30;;;;;;4973016;28;20042;-58
2023/06/27 07:36:43;;;;;;;4.40;0.95;;;23.60;52.00;;;;;;4973476;28;20054;-59
2023/06/27 07:39:08;;;;;;;2.90;0.65;;;23.60;51.90;;;;;;4971335;28;20042;-58
2023/06/27 07:41:34;;;;;;;4.57;0.80;;;23.50;51.70;;;;;;4973950;28;20471;-58
2023/06/27 07:44:00;;;;;;;2.92;0.80;;;23.60;51.70;;;;;;4973292;28;20046;-58
2023/06/27 07:46:25;;;;;;;3.63;1.02;;;23.60;51.50;;;;;;4972862;28;20116;-58
2023/06/27 07:48:51;;;;;;;2.50;0.80;;;23.60;51.30;;;;;;4973287;28;20039;-58
2023/06/27 07:51:16;;;;;;;1.98;0.70;;;23.60;51.20;;;;;;4973616;28;20129;-59
2023/06/27 07:53:42;;;;;;;2.83;1.10;;;23.60;51.20;;;;;;4972983;28;20037;-58
2023/06/27 07:56:08;;;;;;;3.47;0.90;;;23.60;50.80;;;;;;4973253;28;20515;-58
2023/06/27 07:58:33;;;;;;;3.30;0.98;;;23.60;50.70;;;;;;4973614;28;20047;-58
2023/06/27 08:00:59;;;;;;;3.53;0.80;;;23.60;50.70;;;;;;4972598;28;20046;-57
2023/06/27 08:03:25;;;;;;;3.45;0.65;;;23.60;50.40;;;;;;4973659;28;20043;-58
2023/06/27 08:05:55;;;;;;;4.90;1.00;;;23.60;50.30;;;;;;4984193;28;20530;-59
2023/06/27 08:08:20;;;;;;;2.88;0.75;;;23.60;50.20;;;;;;4980942;28;20101;-57
2023/06/27 08:10:47;;;;;;;4.97;0.85;;;23.60;50.20;;;;;;4975868;28;20046;-59
2023/06/27 08:13:12;;;;;;;6.22;1.10;;;23.60;50.10;;;;;;4982388;28;20047;-59
2023/06/27 08:15:38;;;;;;;3.95;0.90;;;23.60;49.80;;;;;;4984376;28;20554;-58
2023/06/27 08:18:03;;;;;;;2.75;0.80;;;23.60;49.80;;;;;;4990916;28;20057;-59
2023/06/27 08:20:30;;;;;;;4.13;0.60;;;23.60;49.70;;;;;;4991967;28;20043;-59
2023/06/27 08:22:55;;;;;;;3.75;0.85;;;23.60;49.30;;;;;;4991777;28;20038;-59
2023/06/27 08:25:21;;;;;;;2.40;0.60;;;23.50;49.40;;;;;;4986746;28;20057;-62
2023/06/27 08:27:46;;;;;;;2.78;0.75;;;23.50;49.30;;;;;;4981529;28;20399;-59
2023/06/27 08:30:12;;;;;;;6.13;0.70;;;23.50;49.10;;;;;;4972452;28;20146;-59
2023/06/27 08:32:38;;;;;;;3.25;0.60;;;23.50;49.00;;;;;;4975211;28;20503;-59
2023/06/27 08:35:06;;;;;;;3.50;0.57;;;23.50;49.20;;;;;;4976687;28;20398;-58
2023/06/27 08:37:32;;;;;;;;;;;23.50;49.40;;;;;;4976428;28;20058;-59
2023/06/27 08:39:57;;;;;;;6.30;0.80;;;23.50;49.30;;;;;;4976428;28;20370;-59
2023/06/27 08:42:23;;;;;;;2.67;0.60;;;23.50;49.40;;;;;;4976041;28;20137;-59
2023/06/27 08:44:49;;;;;;;4.50;0.63;;;23.50;49.40;;;;;;4975266;28;20054;-59
2023/06/27 08:47:15;;;;;;;4.15;0.75;;;23.50;48.90;;;;;;4976527;28;20034;-59
2023/06/27 08:49:41;;;;;;;2.00;0.55;;;23.50;48.70;;;;;;4975777;28;20055;-59
2023/06/27 08:52:07;;;;;;;3.63;0.60;;;23.50;48.30;;;;;;4975071;28;20266;-59
2023/06/27 08:54:36;;;;;;;5.72;0.60;;;23.50;47.90;;;;;;4977020;28;20047;-59
2023/06/27 08:57:02;;;;;;;5.40;0.70;;;23.50;47.90;;;;;;4974601;28;20048;-59
2023/06/27 08:59:31;;;;;;;3.15;0.60;;;23.50;48.00;;;;;;4994293;28;20113;-59
2023/06/27 09:01:58;;;;;;;5.45;0.80;;;23.50;47.90;;;;;;4977973;28;20046;-59
2023/06/27 09:04:23;;;;;;;4.35;0.50;;;23.50;47.90;;;;;;4994551;28;20584;-58
2023/06/27 09:06:49;;;;;;;3.92;0.50;;;23.50;47.90;;;;;;4993923;28;20054;-58
2023/06/27 09:09:15;;;;;;;2.67;0.55;;;23.50;47.60;;;;;;4994283;28;20042;-59
2023/06/27 09:11:42;;;;;;;3.63;0.63;;;23.50;47.50;;;;;;4977020;28;20065;-58
2023/06/27 09:14:08;;;;;;;4.18;0.68;;;23.50;47.60;;;;;;4992078;28;20409;-58
2023/06/27 09:16:34;;;;;;;2.58;0.63;;;23.50;47.20;;;;;;4995118;28;20038;-58
2023/06/27 09:18:59;;;;;;;3.10;0.57;;;23.50;47.20;;;;;;4994093;28;20034;-59
2023/06/27 09:21:25;;;;;;;3.42;0.60;;;23.50;47.10;;;;;;4994797;28;20375;-59
2023/06/27 09:23:51;;;;;;;2.97;0.55;;;23.50;47.00;;;;;;4993767;28;20082;-58
2023/06/27 09:26:17;;;;;;;3.83;0.50;;;23.50;46.90;;;;;;4994057;28;20035;-58
2023/06/27 09:28:47;;;;;;;3.20;0.70;;;23.60;46.90;;;;;;4994832;28;20156;-59
2023/06/27 09:31:15;;;;;;;3.00;0.70;;;23.60;46.90;;;;;;4994803;28;20038;-59
2023/06/27 09:33:44;;;;;;;1.55;0.50;;;23.60;46.80;;;;;;4994478;28;20038;-59
2023/06/27 09:36:11;;;;;;;2.83;0.60;;;23.60;46.70;;;;;;4992026;28;20116;-60
2023/06/27 09:38:36;;;;;;;2.13;0.60;;;23.60;46.40;;;;;;4993819;28;20525;-59
2023/06/27 09:41:03;;;;;;;2.42;0.65;;;23.60;46.50;;;;;;4994619;28;20035;-59
2023/06/27 09:43:35;;;;;;;3.55;0.73;;;23.60;46.30;;;;;;4988761;28;20696;-59
2023/06/27 09:46:02;;;;;;;3.42;0.52;;;23.60;46.30;;;;;;4993191;28;20511;-59
2023/06/27 09:48:31;;;;;;;4.57;0.60;;;23.60;46.10;;;;;;4995249;28;20053;-59
2023/06/27 09:51:03;;;;;;;2.35;0.80;;;23.60;46.20;;;;;;4994472;28;20398;-59
2023/06/27 09:53:30;;;;;;;1.23;0.50;;;23.60;46.10;;;;;;4993984;28;20478;-58
2023/06/27 09:56:01;;;;;;;5.20;0.93;;;23.60;45.90;;;;;;4993036;28;20046;-59
2023/06/27 09:58:31;;;;;;;4.78;0.70;;;23.60;45.90;;;;;;4994234;28;20084;-59
2023/06/27 10:01:06;;;;;;;5.75;1.02;;;23.70;46.20;;;;;;4993367;28;20049;-59
2023/06/27 10:03:33;;;;;;;2.13;0.70;;;23.70;46.80;;;;;;4991374;28;20409;-59
2023/06/27 10:05:59;;;;;;;5.47;0.57;;;23.60;46.70;;;;;;4987646;28;20117;-59
2023/06/27 10:08:26;;;;;;;2.42;0.75;;;23.70;46.70;;;;;;4992695;28;20038;-59
2023/06/27 10:10:57;;;;;;;3.10;0.80;;;23.70;46.80;;;;;;4989469;28;20130;-59
2023/06/27 10:13:22;;;;;;;6.55;0.90;;;23.70;46.60;;;;;;4992388;28;20066;-59
2023/06/27 10:15:48;;;;;;;3.38;0.70;;;23.70;46.70;;;;;;4989704;28;20105;-58
2023/06/27 10:18:14;;;;;;;4.25;0.90;;;23.70;46.60;;;;;;4992382;28;20035;-58
2023/06/27 10:20:39;;;;;;;4.57;0.70;;;23.70;46.50;;;;;;4990439;28;20141;-59
2023/06/27 10:23:05;;;;;;;4.63;0.65;;;23.70;47.10;;;;;;4991744;28;20065;-59
2023/06/27 10:25:31;;;;;;;3.65;0.70;;;23.70;46.60;;;;;;4975555;28;20521;-58
2023/06/27 10:28:06;;;;;;;2.85;0.60;;;23.70;46.60;;;;;;4992375;28;20054;-58
2023/06/27 10:30:32;;;;;;;3.78;0.60;;;23.70;46.60;;;;;;4987735;28;20046;-58
2023/06/27 10:33:20;;;;;;;1.90;0.63;;;23.80;46.60;;;;;;4993295;28;20368;-58
2023/06/27 10:35:50;;;;;;;4.68;0.70;;;23.70;46.40;;;;;;4988902;28;20054;-58
2023/06/27 10:38:17;;;;;;;2.65;0.70;;;23.80;46.60;;;;;;4993221;28;20413;-59
2023/06/27 10:41:05;;;;;;;3.22;0.60;;;23.80;46.50;;;;;;4992843;28;20046;-60
2023/06/27 10:43:47;;;;;;;3.50;0.50;;;23.80;46.40;;;;;;4992895;28;20375;-60
2023/06/27 10:46:22;;;;;;;2.85;0.77;;;23.80;46.10;;;;;;4994121;28;20049;-59
2023/06/27 10:48:54;;;;;;;4.80;0.80;;;23.80;46.90;;;;;;4993637;28;20073;-59
2023/06/27 10:51:22;;;;;;;2.70;0.60;;;23.80;46.10;;;;;;4985969;28;20520;-59
2023/06/27 10:54:11;;;;;;;3.70;0.93;;;23.80;46.10;;;;;;4973978;28;20053;-59
2023/06/27 10:56:56;;;;;;;2.25;0.60;;;23.80;46.20;;;;;;4972882;28;20053;-59
2023/06/27 10:59:22;;;;;;;2.97;0.50;;;23.80;46.10;;;;;;4957223;28;20056;-59
2023/06/27 11:02:02;;;;;;;3.85;1.02;;;23.80;45.80;;;;;;4973633;28;20140;-59
2023/06/27 11:04:43;;;;;;;3.78;0.55;;;23.80;45.80;;;;;;4990414;28;20041;-59
2023/06/27 11:07:12;;;;;;;2.22;0.50;;;23.80;45.40;;;;;;4992068;28;20089;-60
2023/06/27 11:09:39;;;;;;;3.17;0.73;;;23.80;45.50;;;;;;4989480;28;20128;-59
2023/06/27 11:12:14;;;;;;;2.65;0.80;;;23.80;45.60;;;;;;4990731;28;20048;-59
2023/06/27 11:14:44;;;;;;;3.47;0.68;;;23.80;45.70;;;;;;4993207;28;20034;-61
2023/06/27 11:17:13;;;;;;;3.03;0.50;;;23.80;45.40;;;;;;4991849;28;20054;-58
2023/06/27 11:19:39;;;;;;;4.88;0.60;;;23.80;45.50;;;;;;4992839;28;20105;-58
2023/06/27 11:22:05;;;;;;;3.55;0.70;;;23.80;45.50;;;;;;4992892;28;20046;-58
2023/06/27 11:24:31;;;;;;;3.05;0.63;;;23.80;45.50;;;;;;4992335;28;20042;-59
2023/06/27 11:26:57;;;;;;;4.65;0.80;;;23.90;45.80;;;;;;4991797;28;20046;-58
2023/06/27 11:29:23;;;;;;;2.95;0.80;;;23.80;45.80;;;;;;4992595;28;20413;-58
2023/06/27 11:31:49;;;;;;;3.28;0.93;;;23.90;46.00;;;;;;4991737;28;20056;-58
2023/06/27 11:34:16;;;;;;;3.28;0.80;;;23.90;46.00;;;;;;4993200;28;20038;-58
2023/06/27 11:36:41;;;;;;;6.13;0.60;;;23.90;46.10;;;;;;4990998;28;20502;-58
2023/06/27 11:39:09;;;;;;;3.38;0.70;;;24.00;46.30;;;;;;4987634;28;20057;-58
2023/06/27 11:41:42;;;;;;;;;;;23.90;46.30;;;;;;4982452;28;20065;-58
2023/06/27 11:44:09;;;;;;;2.72;0.60;;;23.90;46.60;;;;;;4973367;28;19926;-58
2023/06/27 11:46:37;;;;;;;3.83;0.50;;;24.00;46.60;;;;;;4972858;28;20195;-58
2023/06/27 11:49:02;;;;;;;2.28;0.60;;;24.00;46.70;;;;;;4971595;28;20058;-58
2023/06/27 11:51:38;;;;;;;3.35;0.60;;;24.00;46.70;;;;;;4972170;28;20161;-58
2023/06/27 11:54:05;;;;;;;2.05;0.68;;;24.00;46.90;;;;;;4972430;28;20475;-59
2023/06/27 11:56:31;;;;;;;1.20;0.50;;;24.00;46.90;;;;;;4972359;28;20081;-59
2023/06/27 11:58:59;;;;;;;2.90;0.60;;;24.00;47.00;;;;;;4973262;28;20042;-58
2023/06/27 12:01:25;;;;;;;;;;;24.00;47.10;;;;;;4972601;28;20049;-58
2023/06/27 12:03:51;;;;;;;2.35;0.40;;;24.00;47.20;;;;;;4973136;28;19922;-58
2023/06/27 12:06:24;;;;;;;1.65;0.50;;;24.00;47.30;;;;;;4972527;28;20058;-58
2023/06/27 12:08:50;;;;;;;3.22;0.50;;;24.00;47.40;;;;;;4976862;28;20065;-58
2023/06/27 12:11:16;;;;;;;4.47;0.63;;;24.00;47.40;;;;;;4977060;28;20491;-58
2023/06/27 12:13:42;;;;;;;1.58;0.43;;;24.00;47.50;;;;;;4976638;28;20190;-58
2023/06/27 12:16:25;;;;;;;2.85;0.50;;;24.00;47.60;;;;;;4975804;28;20051;-58
2023/06/27 12:18:50;;;;;;;1.90;0.52;;;24.00;47.80;;;;;;4976904;28;20442;-58
2023/06/27 12:21:16;;;;;;;2.72;0.63;;;24.00;47.80;;;;;;4976040;28;20051;-58
2023/06/27 12:23:41;;;;;;;2.63;0.68;;;24.00;47.90;;;;;;4976506;28;20050;-58
2023/06/27 12:26:07;;;;;;;1.90;0.57;;;24.00;48.00;;;;;;4987558;28;20054;-58
2023/06/27 12:28:33;;;;;;;1.70;0.40;;;24.00;48.00;;;;;;4977062;28;20043;-58
2023/06/27 12:30:58;;;;;;;0.95;0.40;;;24.00;48.10;;;;;;4976461;28;20070;-58
2023/06/27 12:33:24;;;;;;;1.75;0.50;;;24.00;48.20;;;;;;4976780;28;20055;-57
2023/06/27 12:35:50;;;;;;;2.67;0.60;;;24.00;48.30;;;;;;4975872;28;20038;-57
2023/06/27 12:38:15;;;;;;;2.40;0.50;;;24.00;48.30;;;;;;4976339;28;20106;-57
2023/06/27 12:40:41;;;;;;;1.88;0.60;;;24.00;48.40;;;;;;4976788;28;20066;-57
2023/06/27 12:43:07;;;;;;;3.42;0.70;;;24.00;48.50;;;;;;4975681;28;20463;-57
2023/06/27 12:45:32;;;;;;;2.67;0.50;;;24.00;48.60;;;;;;4976799;28;20037;-57
2023/06/27 12:47:58;;;;;;;2.72;0.73;;;24.00;48.70;;;;;;4976279;28;20398;-57